sensor_id;sensor_type;location;lat;lon;timestamp;P1;durP1;ratioP1;P2;durP2;ratioP2
43678;SDS011;29279;50.858;4.392;2022-07-29T00:00:38;8.40;;;2.35;;
43678;SDS011;29279;50.858;4.392;2022-07-29T00:03:04;10.02;;;2.10;;
43678;SDS011;29279;50.858;4.392;2022-07-29T00:05:30;5.75;;;2.13;;
43678;SDS011;29279;50.858;4.392;2022-07-29T00:07:56;9.52;;;1.98;;
43678;SDS011;29279;50.858;4.392;2022-07-29T00:10:21;11.13;;;2.28;;
43678;SDS011;29279;50.858;4.392;2022-07-29T00:12:48;7.88;;;1.63;;
43678;SDS011;29279;50.858;4.392;2022-07-29T00:15:13;5.30;;;1.90;;
43678;SDS011;29279;50.858;4.392;2022-07-29T00:17:39;7.28;;;2.05;;
43678;SDS011;29279;50.858;4.392;2022-07-29T00:20:05;10.27;;;2.10;;
43678;SDS011;29279;50.858;4.392;2022-07-29T00:22:31;6.20;;;2.38;;
43678;SDS011;29279;50.858;4.392;2022-07-29T00:24:57;4.65;;;1.52;;
43678;SDS011;29279;50.858;4.392;2022-07-29T00:27:22;3.85;;;1.48;;
43678;SDS011;29279;50.858;4.392;2022-07-29T00:29:48;7.95;;;2.03;;
43678;SDS011;29279;50.858;4.392;2022-07-29T00:32:14;6.55;;;1.88;;
43678;SDS011;29279;50.858;4.392;2022-07-29T00:34:40;7.43;;;1.67;;
43678;SDS011;29279;50.858;4.392;2022-07-29T00:37:24;8.82;;;1.98;;
43678;SDS011;29279;50.858;4.392;2022-07-29T00:39:50;5.97;;;1.63;;
43678;SDS011;29279;50.858;4.392;2022-07-29T00:42:16;7.50;;;1.63;;
43678;SDS011;29279;50.858;4.392;2022-07-29T00:44:42;10.48;;;1.90;;
43678;SDS011;29279;50.858;4.392;2022-07-29T00:47:08;4.43;;;1.60;;
43678;SDS011;29279;50.858;4.392;2022-07-29T00:49:35;5.55;;;1.63;;
43678;SDS011;29279;50.858;4.392;2022-07-29T00:52:02;4.75;;;1.42;;
43678;SDS011;29279;50.858;4.392;2022-07-29T00:54:31;4.97;;;1.75;;
43678;SDS011;29279;50.858;4.392;2022-07-29T00:56:58;8.95;;;1.80;;
43678;SDS011;29279;50.858;4.392;2022-07-29T00:59:25;8.73;;;1.70;;
43678;SDS011;29279;50.858;4.392;2022-07-29T01:01:52;7.85;;;1.90;;
43678;SDS011;29279;50.858;4.392;2022-07-29T01:04:18;4.70;;;1.75;;
43678;SDS011;29279;50.858;4.392;2022-07-29T01:06:44;8.30;;;1.70;;
43678;SDS011;29279;50.858;4.392;2022-07-29T01:09:10;7.30;;;1.83;;
43678;SDS011;29279;50.858;4.392;2022-07-29T01:11:37;4.18;;;1.38;;
43678;SDS011;29279;50.858;4.392;2022-07-29T01:14:04;5.90;;;2.05;;
43678;SDS011;29279;50.858;4.392;2022-07-29T01:16:32;6.30;;;1.80;;
43678;SDS011;29279;50.858;4.392;2022-07-29T01:30:33;7.82;;;2.00;;
43678;SDS011;29279;50.858;4.392;2022-07-29T01:33:03;4.60;;;1.48;;
43678;SDS011;29279;50.858;4.392;2022-07-29T01:35:36;6.22;;;1.58;;
43678;SDS011;29279;50.858;4.392;2022-07-29T01:38:16;8.13;;;2.13;;
43678;SDS011;29279;50.858;4.392;2022-07-29T01:43:20;5.03;;;1.83;;
43678;SDS011;29279;50.858;4.392;2022-07-29T01:45:52;5.25;;;1.58;;
43678;SDS011;29279;50.858;4.392;2022-07-29T01:48:27;12.48;;;1.58;;
43678;SDS011;29279;50.858;4.392;2022-07-29T01:51:02;6.90;;;1.75;;
43678;SDS011;29279;50.858;4.392;2022-07-29T01:53:52;13.40;;;2.05;;
43678;SDS011;29279;50.858;4.392;2022-07-29T01:56:23;10.15;;;2.05;;
43678;SDS011;29279;50.858;4.392;2022-07-29T01:58:51;5.80;;;1.75;;
43678;SDS011;29279;50.858;4.392;2022-07-29T02:01:18;7.10;;;1.50;;
43678;SDS011;29279;50.858;4.392;2022-07-29T02:03:45;5.53;;;1.63;;
43678;SDS011;29279;50.858;4.392;2022-07-29T02:06:12;6.00;;;1.73;;
43678;SDS011;29279;50.858;4.392;2022-07-29T02:08:42;5.97;;;1.55;;
43678;SDS011;29279;50.858;4.392;2022-07-29T02:11:10;12.02;;;2.17;;
43678;SDS011;29279;50.858;4.392;2022-07-29T02:13:36;3.80;;;1.63;;
43678;SDS011;29279;50.858;4.392;2022-07-29T02:16:04;6.40;;;1.77;;
43678;SDS011;29279;50.858;4.392;2022-07-29T02:18:31;4.75;;;1.65;;
43678;SDS011;29279;50.858;4.392;2022-07-29T02:21:01;10.15;;;2.17;;
43678;SDS011;29279;50.858;4.392;2022-07-29T02:23:28;6.40;;;1.50;;
43678;SDS011;29279;50.858;4.392;2022-07-29T02:25:57;5.40;;;1.60;;
43678;SDS011;29279;50.858;4.392;2022-07-29T02:28:25;4.30;;;1.55;;
43678;SDS011;29279;50.858;4.392;2022-07-29T02:30:54;4.22;;;1.50;;
43678;SDS011;29279;50.858;4.392;2022-07-29T02:33:22;2.90;;;1.20;;
43678;SDS011;29279;50.858;4.392;2022-07-29T02:35:50;9.13;;;2.05;;
43678;SDS011;29279;50.858;4.392;2022-07-29T02:38:16;8.40;;;2.03;;
43678;SDS011;29279;50.858;4.392;2022-07-29T02:41:03;9.45;;;2.50;;
43678;SDS011;29279;50.858;4.392;2022-07-29T02:43:32;8.18;;;2.05;;
43678;SDS011;29279;50.858;4.392;2022-07-29T02:46:00;10.35;;;1.85;;
43678;SDS011;29279;50.858;4.392;2022-07-29T02:48:38;9.18;;;1.60;;
43678;SDS011;29279;50.858;4.392;2022-07-29T02:51:46;8.65;;;1.70;;
43678;SDS011;29279;50.858;4.392;2022-07-29T02:54:20;9.32;;;2.35;;
43678;SDS011;29279;50.858;4.392;2022-07-29T02:56:52;4.45;;;1.77;;
43678;SDS011;29279;50.858;4.392;2022-07-29T02:59:22;7.70;;;1.83;;
43678;SDS011;29279;50.858;4.392;2022-07-29T03:01:51;4.00;;;1.40;;
43678;SDS011;29279;50.858;4.392;2022-07-29T03:04:19;4.53;;;1.52;;
43678;SDS011;29279;50.858;4.392;2022-07-29T03:06:47;4.80;;;1.60;;
43678;SDS011;29279;50.858;4.392;2022-07-29T03:09:14;8.32;;;1.70;;
43678;SDS011;29279;50.858;4.392;2022-07-29T03:11:41;4.03;;;2.10;;
43678;SDS011;29279;50.858;4.392;2022-07-29T03:14:07;5.13;;;1.70;;
43678;SDS011;29279;50.858;4.392;2022-07-29T03:16:33;6.55;;;1.58;;
43678;SDS011;29279;50.858;4.392;2022-07-29T03:19:01;6.88;;;2.22;;
43678;SDS011;29279;50.858;4.392;2022-07-29T03:21:28;5.22;;;1.70;;
43678;SDS011;29279;50.858;4.392;2022-07-29T03:23:54;10.57;;;1.70;;
43678;SDS011;29279;50.858;4.392;2022-07-29T03:26:20;6.28;;;1.98;;
43678;SDS011;29279;50.858;4.392;2022-07-29T03:28:45;7.25;;;1.73;;
43678;SDS011;29279;50.858;4.392;2022-07-29T03:31:11;6.85;;;1.98;;
43678;SDS011;29279;50.858;4.392;2022-07-29T03:33:37;5.13;;;1.80;;
43678;SDS011;29279;50.858;4.392;2022-07-29T03:36:02;10.00;;;2.42;;
43678;SDS011;29279;50.858;4.392;2022-07-29T03:38:29;11.50;;;2.00;;
43678;SDS011;29279;50.858;4.392;2022-07-29T03:40:58;9.02;;;2.10;;
43678;SDS011;29279;50.858;4.392;2022-07-29T03:43:27;8.05;;;2.40;;
43678;SDS011;29279;50.858;4.392;2022-07-29T03:45:56;14.02;;;2.10;;
43678;SDS011;29279;50.858;4.392;2022-07-29T03:48:25;7.28;;;2.30;;
43678;SDS011;29279;50.858;4.392;2022-07-29T03:50:54;11.43;;;2.35;;
43678;SDS011;29279;50.858;4.392;2022-07-29T03:53:20;13.40;;;2.33;;
43678;SDS011;29279;50.858;4.392;2022-07-29T03:55:48;9.73;;;2.20;;
43678;SDS011;29279;50.858;4.392;2022-07-29T03:58:18;13.15;;;2.22;;
43678;SDS011;29279;50.858;4.392;2022-07-29T04:00:44;10.88;;;2.47;;
43678;SDS011;29279;50.858;4.392;2022-07-29T04:03:11;13.90;;;2.60;;
43678;SDS011;29279;50.858;4.392;2022-07-29T04:05:38;12.00;;;2.75;;
43678;SDS011;29279;50.858;4.392;2022-07-29T04:08:04;12.55;;;2.47;;
43678;SDS011;29279;50.858;4.392;2022-07-29T04:10:30;7.53;;;2.13;;
43678;SDS011;29279;50.858;4.392;2022-07-29T04:12:56;10.77;;;2.45;;
43678;SDS011;29279;50.858;4.392;2022-07-29T04:15:21;10.57;;;2.33;;
43678;SDS011;29279;50.858;4.392;2022-07-29T04:17:47;12.93;;;2.63;;
43678;SDS011;29279;50.858;4.392;2022-07-29T04:20:13;5.70;;;2.13;;
43678;SDS011;29279;50.858;4.392;2022-07-29T04:22:39;13.88;;;2.42;;
43678;SDS011;29279;50.858;4.392;2022-07-29T04:25:05;11.60;;;2.60;;
43678;SDS011;29279;50.858;4.392;2022-07-29T04:27:31;8.88;;;2.70;;
43678;SDS011;29279;50.858;4.392;2022-07-29T04:29:57;6.70;;;2.42;;
43678;SDS011;29279;50.858;4.392;2022-07-29T04:32:23;7.20;;;2.63;;
43678;SDS011;29279;50.858;4.392;2022-07-29T04:34:49;11.90;;;2.80;;
43678;SDS011;29279;50.858;4.392;2022-07-29T04:37:15;10.45;;;2.75;;
43678;SDS011;29279;50.858;4.392;2022-07-29T04:39:40;13.13;;;2.85;;
43678;SDS011;29279;50.858;4.392;2022-07-29T04:42:06;12.52;;;3.17;;
43678;SDS011;29279;50.858;4.392;2022-07-29T04:44:31;10.63;;;3.22;;
43678;SDS011;29279;50.858;4.392;2022-07-29T04:46:57;12.20;;;3.60;;
43678;SDS011;29279;50.858;4.392;2022-07-29T04:49:23;9.20;;;2.80;;
43678;SDS011;29279;50.858;4.392;2022-07-29T04:51:49;12.95;;;3.60;;
43678;SDS011;29279;50.858;4.392;2022-07-29T04:54:15;16.38;;;3.30;;
43678;SDS011;29279;50.858;4.392;2022-07-29T04:56:40;9.05;;;3.33;;
43678;SDS011;29279;50.858;4.392;2022-07-29T04:59:06;11.85;;;3.75;;
43678;SDS011;29279;50.858;4.392;2022-07-29T05:01:33;23.00;;;3.30;;
43678;SDS011;29279;50.858;4.392;2022-07-29T05:03:58;11.00;;;3.30;;
43678;SDS011;29279;50.858;4.392;2022-07-29T05:06:24;9.50;;;3.22;;
43678;SDS011;29279;50.858;4.392;2022-07-29T05:08:50;5.72;;;3.05;;
43678;SDS011;29279;50.858;4.392;2022-07-29T05:11:15;12.98;;;2.80;;
43678;SDS011;29279;50.858;4.392;2022-07-29T05:13:41;9.50;;;3.22;;
43678;SDS011;29279;50.858;4.392;2022-07-29T05:16:07;12.50;;;3.40;;
43678;SDS011;29279;50.858;4.392;2022-07-29T05:18:34;9.90;;;3.63;;
43678;SDS011;29279;50.858;4.392;2022-07-29T05:20:59;12.07;;;3.17;;
43678;SDS011;29279;50.858;4.392;2022-07-29T05:23:25;15.70;;;4.18;;
43678;SDS011;29279;50.858;4.392;2022-07-29T05:25:51;14.18;;;3.58;;
43678;SDS011;29279;50.858;4.392;2022-07-29T05:28:16;11.43;;;3.03;;
43678;SDS011;29279;50.858;4.392;2022-07-29T05:30:42;11.48;;;3.58;;
43678;SDS011;29279;50.858;4.392;2022-07-29T05:33:09;9.15;;;3.17;;
43678;SDS011;29279;50.858;4.392;2022-07-29T05:35:35;13.18;;;2.80;;
43678;SDS011;29279;50.858;4.392;2022-07-29T05:38:02;10.85;;;3.22;;
43678;SDS011;29279;50.858;4.392;2022-07-29T05:40:28;13.35;;;3.25;;
43678;SDS011;29279;50.858;4.392;2022-07-29T05:42:54;8.57;;;3.05;;
43678;SDS011;29279;50.858;4.392;2022-07-29T05:45:20;9.00;;;3.88;;
43678;SDS011;29279;50.858;4.392;2022-07-29T05:47:45;11.18;;;3.40;;
43678;SDS011;29279;50.858;4.392;2022-07-29T05:50:11;10.05;;;2.95;;
43678;SDS011;29279;50.858;4.392;2022-07-29T05:52:37;7.97;;;2.92;;
43678;SDS011;29279;50.858;4.392;2022-07-29T05:55:04;7.10;;;2.75;;
43678;SDS011;29279;50.858;4.392;2022-07-29T05:57:30;7.35;;;3.03;;
43678;SDS011;29279;50.858;4.392;2022-07-29T05:59:56;9.20;;;2.97;;
43678;SDS011;29279;50.858;4.392;2022-07-29T06:02:22;8.15;;;2.80;;
43678;SDS011;29279;50.858;4.392;2022-07-29T06:04:47;5.72;;;3.05;;
43678;SDS011;29279;50.858;4.392;2022-07-29T06:07:14;12.05;;;3.33;;
43678;SDS011;29279;50.858;4.392;2022-07-29T06:09:41;8.15;;;3.08;;
43678;SDS011;29279;50.858;4.392;2022-07-29T06:12:06;10.35;;;3.00;;
43678;SDS011;29279;50.858;4.392;2022-07-29T06:14:33;7.10;;;2.92;;
43678;SDS011;29279;50.858;4.392;2022-07-29T06:16:58;10.55;;;2.80;;
43678;SDS011;29279;50.858;4.392;2022-07-29T06:19:24;9.10;;;3.42;;
43678;SDS011;29279;50.858;4.392;2022-07-29T06:21:50;8.98;;;3.08;;
43678;SDS011;29279;50.858;4.392;2022-07-29T06:24:16;7.15;;;2.75;;
43678;SDS011;29279;50.858;4.392;2022-07-29T06:26:42;11.45;;;3.10;;
43678;SDS011;29279;50.858;4.392;2022-07-29T06:29:07;6.60;;;3.20;;
43678;SDS011;29279;50.858;4.392;2022-07-29T06:31:35;10.48;;;2.83;;
43678;SDS011;29279;50.858;4.392;2022-07-29T06:34:02;15.45;;;3.60;;
43678;SDS011;29279;50.858;4.392;2022-07-29T06:36:28;10.02;;;3.20;;
43678;SDS011;29279;50.858;4.392;2022-07-29T06:38:54;8.98;;;3.25;;
43678;SDS011;29279;50.858;4.392;2022-07-29T06:41:20;11.00;;;3.17;;
43678;SDS011;29279;50.858;4.392;2022-07-29T06:43:45;9.80;;;3.90;;
43678;SDS011;29279;50.858;4.392;2022-07-29T06:46:13;10.60;;;3.70;;
43678;SDS011;29279;50.858;4.392;2022-07-29T06:48:40;8.80;;;3.25;;
43678;SDS011;29279;50.858;4.392;2022-07-29T06:51:10;7.65;;;2.90;;
43678;SDS011;29279;50.858;4.392;2022-07-29T06:53:38;8.27;;;3.83;;
43678;SDS011;29279;50.858;4.392;2022-07-29T06:56:05;6.72;;;3.58;;
43678;SDS011;29279;50.858;4.392;2022-07-29T06:58:33;8.70;;;3.15;;
43678;SDS011;29279;50.858;4.392;2022-07-29T07:01:04;13.43;;;3.03;;
43678;SDS011;29279;50.858;4.392;2022-07-29T07:03:31;9.88;;;4.03;;
43678;SDS011;29279;50.858;4.392;2022-07-29T07:05:57;9.23;;;3.78;;
43678;SDS011;29279;50.858;4.392;2022-07-29T07:08:22;8.63;;;3.85;;
43678;SDS011;29279;50.858;4.392;2022-07-29T07:10:52;16.30;;;3.67;;
43678;SDS011;29279;50.858;4.392;2022-07-29T07:13:18;6.65;;;3.33;;
43678;SDS011;29279;50.858;4.392;2022-07-29T07:15:44;9.80;;;4.10;;
43678;SDS011;29279;50.858;4.392;2022-07-29T07:18:12;9.38;;;3.60;;
43678;SDS011;29279;50.858;4.392;2022-07-29T07:20:39;8.45;;;4.60;;
43678;SDS011;29279;50.858;4.392;2022-07-29T07:23:05;11.52;;;3.95;;
43678;SDS011;29279;50.858;4.392;2022-07-29T07:25:30;13.02;;;3.55;;
43678;SDS011;29279;50.858;4.392;2022-07-29T07:27:56;13.70;;;4.18;;
43678;SDS011;29279;50.858;4.392;2022-07-29T07:30:22;8.75;;;3.50;;
43678;SDS011;29279;50.858;4.392;2022-07-29T07:32:47;10.82;;;3.55;;
43678;SDS011;29279;50.858;4.392;2022-07-29T07:35:13;7.10;;;3.63;;
43678;SDS011;29279;50.858;4.392;2022-07-29T07:37:39;14.30;;;3.70;;
43678;SDS011;29279;50.858;4.392;2022-07-29T07:40:08;10.43;;;3.40;;
43678;SDS011;29279;50.858;4.392;2022-07-29T07:42:36;12.55;;;3.97;;
43678;SDS011;29279;50.858;4.392;2022-07-29T07:45:03;8.27;;;3.67;;
43678;SDS011;29279;50.858;4.392;2022-07-29T07:47:30;13.05;;;3.83;;
43678;SDS011;29279;50.858;4.392;2022-07-29T07:49:56;12.50;;;3.60;;
43678;SDS011;29279;50.858;4.392;2022-07-29T07:52:22;8.30;;;3.40;;
43678;SDS011;29279;50.858;4.392;2022-07-29T07:54:48;18.92;;;5.70;;
43678;SDS011;29279;50.858;4.392;2022-07-29T07:57:14;17.92;;;5.57;;
43678;SDS011;29279;50.858;4.392;2022-07-29T07:59:40;10.60;;;3.60;;
43678;SDS011;29279;50.858;4.392;2022-07-29T08:02:07;13.95;;;3.95;;
43678;SDS011;29279;50.858;4.392;2022-07-29T08:04:33;12.13;;;3.65;;
43678;SDS011;29279;50.858;4.392;2022-07-29T08:06:59;14.75;;;3.78;;
43678;SDS011;29279;50.858;4.392;2022-07-29T08:09:26;11.88;;;3.67;;
43678;SDS011;29279;50.858;4.392;2022-07-29T08:11:53;10.38;;;3.90;;
43678;SDS011;29279;50.858;4.392;2022-07-29T08:14:19;12.93;;;3.85;;
43678;SDS011;29279;50.858;4.392;2022-07-29T08:16:44;6.10;;;3.85;;
43678;SDS011;29279;50.858;4.392;2022-07-29T08:19:10;13.40;;;3.80;;
43678;SDS011;29279;50.858;4.392;2022-07-29T08:21:36;8.02;;;3.25;;
43678;SDS011;29279;50.858;4.392;2022-07-29T08:24:03;9.27;;;3.30;;
43678;SDS011;29279;50.858;4.392;2022-07-29T08:26:47;10.65;;;3.33;;
43678;SDS011;29279;50.858;4.392;2022-07-29T08:29:13;11.98;;;3.05;;
43678;SDS011;29279;50.858;4.392;2022-07-29T08:31:39;7.63;;;2.67;;
43678;SDS011;29279;50.858;4.392;2022-07-29T08:34:05;10.38;;;3.10;;
43678;SDS011;29279;50.858;4.392;2022-07-29T08:36:31;10.77;;;3.60;;
43678;SDS011;29279;50.858;4.392;2022-07-29T08:38:58;6.07;;;3.15;;
43678;SDS011;29279;50.858;4.392;2022-07-29T08:41:24;9.07;;;2.80;;
43678;SDS011;29279;50.858;4.392;2022-07-29T08:43:50;6.75;;;2.40;;
43678;SDS011;29279;50.858;4.392;2022-07-29T08:46:17;9.60;;;2.95;;
43678;SDS011;29279;50.858;4.392;2022-07-29T08:48:43;5.00;;;2.50;;
43678;SDS011;29279;50.858;4.392;2022-07-29T08:51:12;6.07;;;2.42;;
43678;SDS011;29279;50.858;4.392;2022-07-29T08:53:44;6.15;;;2.35;;
43678;SDS011;29279;50.858;4.392;2022-07-29T08:56:12;3.72;;;2.10;;
43678;SDS011;29279;50.858;4.392;2022-07-29T08:58:39;6.78;;;2.35;;
43678;SDS011;29279;50.858;4.392;2022-07-29T09:01:06;4.50;;;2.00;;
43678;SDS011;29279;50.858;4.392;2022-07-29T09:03:34;8.93;;;2.30;;
43678;SDS011;29279;50.858;4.392;2022-07-29T09:06:01;7.75;;;2.33;;
43678;SDS011;29279;50.858;4.392;2022-07-29T09:08:29;7.07;;;2.22;;
43678;SDS011;29279;50.858;4.392;2022-07-29T09:10:56;5.32;;;2.13;;
43678;SDS011;29279;50.858;4.392;2022-07-29T09:13:23;5.97;;;2.40;;
43678;SDS011;29279;50.858;4.392;2022-07-29T09:15:49;10.23;;;2.05;;
43678;SDS011;29279;50.858;4.392;2022-07-29T09:21:05;7.00;;;2.03;;
43678;SDS011;29279;50.858;4.392;2022-07-29T09:24:10;6.20;;;2.30;;
43678;SDS011;29279;50.858;4.392;2022-07-29T09:26:39;9.15;;;2.08;;
43678;SDS011;29279;50.858;4.392;2022-07-29T09:31:36;10.20;;;2.38;;
43678;SDS011;29279;50.858;4.392;2022-07-29T09:34:03;7.70;;;2.05;;
43678;SDS011;29279;50.858;4.392;2022-07-29T09:36:29;8.95;;;1.98;;
43678;SDS011;29279;50.858;4.392;2022-07-29T09:38:59;7.60;;;2.13;;
43678;SDS011;29279;50.858;4.392;2022-07-29T09:41:26;8.75;;;2.30;;
43678;SDS011;29279;50.858;4.392;2022-07-29T09:43:53;4.85;;;2.13;;
43678;SDS011;29279;50.858;4.392;2022-07-29T09:46:24;5.88;;;1.92;;
43678;SDS011;29279;50.858;4.392;2022-07-29T09:49:09;12.63;;;2.45;;
43678;SDS011;29279;50.858;4.392;2022-07-29T09:51:37;6.50;;;1.77;;
43678;SDS011;29279;50.858;4.392;2022-07-29T09:56:51;12.75;;;2.00;;
43678;SDS011;29279;50.858;4.392;2022-07-29T09:59:18;6.63;;;2.00;;
43678;SDS011;29279;50.858;4.392;2022-07-29T10:01:46;5.95;;;2.20;;
43678;SDS011;29279;50.858;4.392;2022-07-29T10:04:15;10.20;;;1.85;;
43678;SDS011;29279;50.858;4.392;2022-07-29T10:07:00;7.47;;;2.35;;
43678;SDS011;29279;50.858;4.392;2022-07-29T10:09:30;6.88;;;1.85;;
43678;SDS011;29279;50.858;4.392;2022-07-29T10:12:29;7.38;;;2.08;;
43678;SDS011;29279;50.858;4.392;2022-07-29T10:14:48;5.72;;;1.50;;
43678;SDS011;29279;50.858;4.392;2022-07-29T10:17:15;9.82;;;1.73;;
43678;SDS011;29279;50.858;4.392;2022-07-29T10:19:41;9.65;;;1.67;;
43678;SDS011;29279;50.858;4.392;2022-07-29T10:22:09;9.80;;;1.90;;
43678;SDS011;29279;50.858;4.392;2022-07-29T10:24:36;9.90;;;1.85;;
43678;SDS011;29279;50.858;4.392;2022-07-29T10:27:06;11.57;;;2.30;;
43678;SDS011;29279;50.858;4.392;2022-07-29T10:29:33;5.18;;;1.55;;
43678;SDS011;29279;50.858;4.392;2022-07-29T10:34:44;7.45;;;1.83;;
43678;SDS011;29279;50.858;4.392;2022-07-29T10:40:22;4.63;;;1.50;;
43678;SDS011;29279;50.858;4.392;2022-07-29T10:43:16;5.70;;;1.50;;
43678;SDS011;29279;50.858;4.392;2022-07-29T10:45:46;4.60;;;1.40;;
43678;SDS011;29279;50.858;4.392;2022-07-29T10:48:14;8.48;;;1.40;;
43678;SDS011;29279;50.858;4.392;2022-07-29T10:53:45;8.98;;;1.70;;
43678;SDS011;29279;50.858;4.392;2022-07-29T10:56:26;5.85;;;1.65;;
43678;SDS011;29279;50.858;4.392;2022-07-29T11:01:52;7.13;;;2.03;;
43678;SDS011;29279;50.858;4.392;2022-07-29T11:07:09;7.07;;;1.70;;
43678;SDS011;29279;50.858;4.392;2022-07-29T11:09:36;6.38;;;1.75;;
43678;SDS011;29279;50.858;4.392;2022-07-29T11:12:03;6.60;;;1.75;;
43678;SDS011;29279;50.858;4.392;2022-07-29T11:14:55;6.47;;;1.73;;
43678;SDS011;29279;50.858;4.392;2022-07-29T11:17:26;6.88;;;1.80;;
43678;SDS011;29279;50.858;4.392;2022-07-29T11:20:29;6.18;;;1.90;;
43678;SDS011;29279;50.858;4.392;2022-07-29T11:22:56;6.57;;;2.10;;
43678;SDS011;29279;50.858;4.392;2022-07-29T11:25:22;12.68;;;2.60;;
43678;SDS011;29279;50.858;4.392;2022-07-29T11:27:48;9.23;;;2.53;;
43678;SDS011;29279;50.858;4.392;2022-07-29T11:30:14;7.63;;;2.10;;
43678;SDS011;29279;50.858;4.392;2022-07-29T11:32:42;6.82;;;2.00;;
43678;SDS011;29279;50.858;4.392;2022-07-29T11:38:34;8.60;;;2.50;;
43678;SDS011;29279;50.858;4.392;2022-07-29T11:46:16;10.82;;;1.95;;
43678;SDS011;29279;50.858;4.392;2022-07-29T11:49:00;12.52;;;2.45;;
43678;SDS011;29279;50.858;4.392;2022-07-29T11:51:27;8.27;;;2.05;;
43678;SDS011;29279;50.858;4.392;2022-07-29T11:53:53;8.93;;;2.70;;
43678;SDS011;29279;50.858;4.392;2022-07-29T11:56:21;8.90;;;2.30;;
43678;SDS011;29279;50.858;4.392;2022-07-29T11:58:50;6.03;;;2.58;;
43678;SDS011;29279;50.858;4.392;2022-07-29T12:01:26;7.05;;;2.35;;
43678;SDS011;29279;50.858;4.392;2022-07-29T12:04:01;8.73;;;2.53;;
43678;SDS011;29279;50.858;4.392;2022-07-29T12:06:28;10.38;;;2.70;;
43678;SDS011;29279;50.858;4.392;2022-07-29T12:08:54;8.40;;;1.75;;
43678;SDS011;29279;50.858;4.392;2022-07-29T12:11:20;10.85;;;2.20;;
43678;SDS011;29279;50.858;4.392;2022-07-29T12:13:46;6.82;;;1.90;;
43678;SDS011;29279;50.858;4.392;2022-07-29T12:16:12;14.45;;;2.10;;
43678;SDS011;29279;50.858;4.392;2022-07-29T12:18:37;11.05;;;2.63;;
43678;SDS011;29279;50.858;4.392;2022-07-29T12:21:03;9.02;;;2.38;;
43678;SDS011;29279;50.858;4.392;2022-07-29T12:23:29;8.98;;;2.40;;
43678;SDS011;29279;50.858;4.392;2022-07-29T12:25:58;11.82;;;2.15;;
43678;SDS011;29279;50.858;4.392;2022-07-29T12:28:24;8.38;;;2.70;;
43678;SDS011;29279;50.858;4.392;2022-07-29T12:30:50;10.43;;;2.90;;
43678;SDS011;29279;50.858;4.392;2022-07-29T12:35:45;7.07;;;2.40;;
43678;SDS011;29279;50.858;4.392;2022-07-29T12:38:19;7.82;;;2.28;;
43678;SDS011;29279;50.858;4.392;2022-07-29T12:40:45;6.68;;;1.92;;
43678;SDS011;29279;50.858;4.392;2022-07-29T12:43:16;4.63;;;2.03;;
43678;SDS011;29279;50.858;4.392;2022-07-29T12:45:52;12.02;;;2.55;;
43678;SDS011;29279;50.858;4.392;2022-07-29T12:48:33;11.48;;;2.33;;
43678;SDS011;29279;50.858;4.392;2022-07-29T12:51:03;6.45;;;1.98;;
43678;SDS011;29279;50.858;4.392;2022-07-29T12:53:31;10.27;;;2.15;;
43678;SDS011;29279;50.858;4.392;2022-07-29T12:55:57;11.77;;;2.20;;
43678;SDS011;29279;50.858;4.392;2022-07-29T12:58:30;7.35;;;1.88;;
43678;SDS011;29279;50.858;4.392;2022-07-29T13:01:02;8.07;;;1.80;;
43678;SDS011;29279;50.858;4.392;2022-07-29T13:03:56;5.18;;;1.83;;
43678;SDS011;29279;50.858;4.392;2022-07-29T13:11:46;9.88;;;1.75;;
43678;SDS011;29279;50.858;4.392;2022-07-29T13:17:11;6.43;;;1.55;;
43678;SDS011;29279;50.858;4.392;2022-07-29T13:19:43;7.05;;;1.55;;
43678;SDS011;29279;50.858;4.392;2022-07-29T13:22:18;9.82;;;1.40;;
43678;SDS011;29279;50.858;4.392;2022-07-29T13:27:11;4.97;;;1.83;;
43678;SDS011;29279;50.858;4.392;2022-07-29T13:29:38;4.82;;;1.95;;
43678;SDS011;29279;50.858;4.392;2022-07-29T13:32:05;10.02;;;1.90;;
43678;SDS011;29279;50.858;4.392;2022-07-29T13:34:31;11.52;;;1.80;;
43678;SDS011;29279;50.858;4.392;2022-07-29T13:36:56;6.53;;;1.70;;
43678;SDS011;29279;50.858;4.392;2022-07-29T13:39:22;5.30;;;1.92;;
43678;SDS011;29279;50.858;4.392;2022-07-29T13:41:48;9.10;;;1.85;;
43678;SDS011;29279;50.858;4.392;2022-07-29T13:44:14;7.07;;;1.80;;
43678;SDS011;29279;50.858;4.392;2022-07-29T13:46:40;5.38;;;1.52;;
43678;SDS011;29279;50.858;4.392;2022-07-29T13:49:05;6.20;;;1.73;;
43678;SDS011;29279;50.858;4.392;2022-07-29T13:51:31;8.85;;;2.03;;
43678;SDS011;29279;50.858;4.392;2022-07-29T13:53:57;5.03;;;1.60;;
43678;SDS011;29279;50.858;4.392;2022-07-29T13:56:23;7.38;;;1.45;;
43678;SDS011;29279;50.858;4.392;2022-07-29T13:58:48;5.78;;;1.55;;
43678;SDS011;29279;50.858;4.392;2022-07-29T14:01:14;4.38;;;1.25;;
43678;SDS011;29279;50.858;4.392;2022-07-29T14:03:40;9.13;;;1.67;;
43678;SDS011;29279;50.858;4.392;2022-07-29T14:06:08;5.13;;;1.30;;
43678;SDS011;29279;50.858;4.392;2022-07-29T14:08:33;9.77;;;1.50;;
43678;SDS011;29279;50.858;4.392;2022-07-29T14:10:59;6.65;;;1.70;;
43678;SDS011;29279;50.858;4.392;2022-07-29T14:13:25;7.10;;;1.45;;
43678;SDS011;29279;50.858;4.392;2022-07-29T14:15:51;9.35;;;1.38;;
43678;SDS011;29279;50.858;4.392;2022-07-29T14:18:17;7.65;;;1.55;;
43678;SDS011;29279;50.858;4.392;2022-07-29T14:20:42;6.07;;;1.75;;
43678;SDS011;29279;50.858;4.392;2022-07-29T14:23:08;8.27;;;1.67;;
43678;SDS011;29279;50.858;4.392;2022-07-29T14:25:34;6.00;;;1.60;;
43678;SDS011;29279;50.858;4.392;2022-07-29T14:27:59;11.25;;;1.77;;
43678;SDS011;29279;50.858;4.392;2022-07-29T14:30:25;4.50;;;1.23;;
43678;SDS011;29279;50.858;4.392;2022-07-29T14:32:51;4.78;;;1.75;;
43678;SDS011;29279;50.858;4.392;2022-07-29T14:35:17;6.32;;;1.63;;
43678;SDS011;29279;50.858;4.392;2022-07-29T14:37:42;7.60;;;2.08;;
43678;SDS011;29279;50.858;4.392;2022-07-29T14:40:08;6.95;;;1.65;;
43678;SDS011;29279;50.858;4.392;2022-07-29T14:42:35;11.38;;;1.65;;
43678;SDS011;29279;50.858;4.392;2022-07-29T14:45:02;4.72;;;1.63;;
43678;SDS011;29279;50.858;4.392;2022-07-29T14:47:32;6.93;;;1.63;;
43678;SDS011;29279;50.858;4.392;2022-07-29T14:49:58;6.07;;;1.45;;
43678;SDS011;29279;50.858;4.392;2022-07-29T14:52:24;8.32;;;1.60;;
43678;SDS011;29279;50.858;4.392;2022-07-29T14:54:50;4.07;;;1.40;;
43678;SDS011;29279;50.858;4.392;2022-07-29T14:57:16;8.70;;;1.40;;
43678;SDS011;29279;50.858;4.392;2022-07-29T14:59:41;5.28;;;1.88;;
43678;SDS011;29279;50.858;4.392;2022-07-29T15:02:07;11.85;;;1.55;;
43678;SDS011;29279;50.858;4.392;2022-07-29T15:04:33;7.85;;;1.92;;
43678;SDS011;29279;50.858;4.392;2022-07-29T15:06:59;4.10;;;1.50;;
43678;SDS011;29279;50.858;4.392;2022-07-29T15:09:25;6.68;;;1.63;;
43678;SDS011;29279;50.858;4.392;2022-07-29T15:11:51;4.85;;;1.55;;
43678;SDS011;29279;50.858;4.392;2022-07-29T15:14:17;5.15;;;1.50;;
43678;SDS011;29279;50.858;4.392;2022-07-29T15:16:42;5.88;;;1.88;;
43678;SDS011;29279;50.858;4.392;2022-07-29T15:19:08;6.50;;;1.48;;
43678;SDS011;29279;50.858;4.392;2022-07-29T15:21:34;11.73;;;1.65;;
43678;SDS011;29279;50.858;4.392;2022-07-29T15:24:00;7.18;;;1.60;;
43678;SDS011;29279;50.858;4.392;2022-07-29T15:26:26;4.45;;;1.33;;
43678;SDS011;29279;50.858;4.392;2022-07-29T15:28:51;5.90;;;1.60;;
43678;SDS011;29279;50.858;4.392;2022-07-29T15:31:17;10.57;;;1.95;;
43678;SDS011;29279;50.858;4.392;2022-07-29T15:33:46;5.20;;;1.70;;
43678;SDS011;29279;50.858;4.392;2022-07-29T15:36:11;7.07;;;1.77;;
43678;SDS011;29279;50.858;4.392;2022-07-29T15:38:38;5.63;;;1.65;;
43678;SDS011;29279;50.858;4.392;2022-07-29T15:41:05;9.85;;;1.90;;
43678;SDS011;29279;50.858;4.392;2022-07-29T15:43:31;7.88;;;1.95;;
43678;SDS011;29279;50.858;4.392;2022-07-29T15:45:57;8.80;;;2.00;;